Time;durP1;ratioP1;P1;durP2;ratioP2;P2;SDS_P1;SDS_P2;PMS_P1;PMS_P2;Temp;Humidity;BMP_temperature;BMP_pressure;BME280_temperature;BME280_humidity;BME280_pressure;Samples;Min_cycle;Max_cycle;Signal;HPM_P1;HPM_P2
2023/05/30 00:00:05;;;;;;;5.82;4.13;;;;;;;;;;5020318;28;20916;-65
2023/05/30 00:02:31;;;;;;;7.30;3.88;;;;;;;;;;5021821;28;20076;-64
2023/05/30 00:04:57;;;;;;;4.95;3.58;;;;;;;;;;5020280;28;20140;-64
2023/05/30 00:07:22;;;;;;;5.00;3.80;;;;;;;;;;5029186;28;20052;-65
2023/05/30 00:09:48;;;;;;;7.38;4.40;;;;;;;;;;5040202;28;20578;-65
2023/05/30 00:12:13;;;;;;;4.40;3.35;;;;;;;;;;5040404;28;20438;-64
2023/05/30 00:14:39;;;;;;;4.80;4.15;;;;;;;;;;5041876;28;20096;-65
2023/05/30 00:17:05;;;;;;;4.45;3.20;;;;;;;;;;5042082;28;20406;-64
2023/05/30 00:19:31;;;;;;;4.70;3.75;;;;;;;;;;5041258;28;20028;-63
2023/05/30 00:21:56;;;;;;;7.18;4.22;;;;;;;;;;5042025;28;20083;-65
2023/05/30 00:24:24;;;;;;;5.90;4.07;;;;;;;;;;5039177;28;20580;-64
2023/05/30 00:26:49;;;;;;;4.28;3.88;;;;;;;;;;5041778;28;20518;-65
2023/05/30 00:29:15;;;;;;;4.75;3.58;;;;;;;;;;5038626;28;20033;-64
2023/05/30 00:31:41;;;;;;;4.68;3.45;;;;;;;;;;5040569;28;20052;-63
2023/05/30 00:34:06;;;;;;;6.43;3.40;;;;;;;;;;5040739;28;20475;-64
2023/05/30 00:36:31;;;;;;;4.28;3.53;;;;;;;;;;5039848;28;20421;-64
2023/05/30 00:38:57;;;;;;;6.43;3.30;;;;;;;;;;5028902;28;20063;-63
2023/05/30 00:41:22;;;;;;;5.50;3.88;;;;;;;;;;5024206;28;20032;-64
2023/05/30 00:43:48;;;;;;;6.13;4.20;;;;;;;;;;5039884;28;20488;-64
2023/05/30 00:46:14;;;;;;;6.82;3.58;;;;;;;;;;5039800;28;20076;-65
2023/05/30 00:48:40;;;;;;;6.90;4.25;;;;;;;;;;5040474;28;20094;-64
2023/05/30 00:51:07;;;;;;;4.35;3.53;;;;;;;;;;5039558;28;20136;-64
2023/05/30 00:53:32;;;;;;;6.85;3.45;;;;;;;;;;5039655;28;20037;-64
2023/05/30 00:55:58;;;;;;;5.38;3.85;;;;;;;;;;5043726;28;20033;-64
2023/05/30 00:58:23;;;;;;;5.45;3.53;;;;;;;;;;5044249;28;20286;-64
2023/05/30 01:00:49;;;;;;;5.45;3.97;;;;;;;;;;5040788;28;20040;-64
2023/05/30 01:03:15;;;;;;;6.40;3.53;;;;;;;;;;5037565;28;20021;-65
2023/05/30 01:05:42;;;;;;;4.35;3.85;;;;;;;;;;5039907;28;20059;-64
2023/05/30 01:08:10;;;;;;;6.10;3.42;;;;;;;;;;5028173;28;20054;-64
2023/05/30 01:10:36;;;;;;;3.90;3.53;;;;;;;;;;5001478;28;20041;-64
2023/05/30 01:13:21;;;;;;;5.90;4.13;;;;;;;;;;5004033;28;20072;-65
2023/05/30 01:15:52;;;;;;;5.95;3.83;;;;;;;;;;5002333;28;20029;-65
2023/05/30 01:18:20;;;;;;;5.72;3.58;;;;;;;;;;5019516;28;20029;-64
2023/05/30 01:20:48;;;;;;;6.35;3.58;;;;;;;;;;5019985;28;20036;-65
2023/05/30 01:23:21;;;;;;;5.97;3.78;;;;;;;;;;5020962;28;20048;-65
2023/05/30 01:25:53;;;;;;;8.60;5.07;;;;;;;;;;5020171;28;20441;-64
2023/05/30 01:28:21;;;;;;;4.40;3.08;;;;;;;;;;5020669;28;20033;-65
2023/05/30 01:30:48;;;;;;;6.75;4.13;;;;;;;;;;5018904;28;20382;-65
2023/05/30 01:33:14;;;;;;;6.03;3.80;;;;;;;;;;5001415;28;20061;-65
2023/05/30 01:35:43;;;;;;;6.00;3.42;;;;;;;;;;5020307;28;20583;-65
2023/05/30 01:38:08;;;;;;;4.65;3.53;;;;;;;;;;5001546;28;20225;-66
2023/05/30 01:40:34;;;;;;;4.35;3.33;;;;;;;;;;5002893;28;20102;-63
2023/05/30 01:43:35;;;;;;;5.20;3.17;;;;;;;;;;5002670;28;20087;-63
2023/05/30 01:46:03;;;;;;;4.93;3.30;;;;;;;;;;4941372;28;20529;-64
2023/05/30 01:48:50;;;;;;;4.30;3.80;;;;;;;;;;4917299;28;20046;-65
2023/05/30 01:51:20;;;;;;;4.25;3.38;;;;;;;;;;4906849;28;20521;-64
2023/05/30 01:53:52;;;;;;;4.57;3.60;;;;;;;;;;4939649;28;20039;-64
2023/05/30 01:56:18;;;;;;;4.30;3.58;;;;;;;;;;4938744;28;20044;-64
2023/05/30 01:58:46;;;;;;;7.90;3.83;;;;;;;;;;4939554;28;20507;-64
2023/05/30 02:01:12;;;;;;;4.18;3.60;;;;;;;;;;4938871;28;20039;-64
2023/05/30 02:03:38;;;;;;;4.22;3.83;;;;;;;;;;4939416;28;20527;-63
2023/05/30 02:06:03;;;;;;;5.10;3.55;;;;;;;;;;4921633;28;20035;-64
2023/05/30 02:08:30;;;;;;;3.97;3.13;;;;;;;;;;4936983;28;20058;-64
2023/05/30 02:10:56;;;;;;;4.53;3.40;;;;;;;;;;4977030;28;20049;-64
2023/05/30 02:13:21;;;;;;;3.78;3.33;;;;;;;;;;4978324;28;20519;-64
2023/05/30 02:15:47;;;;;;;8.15;3.55;;;;;;;;;;4976612;28;20054;-63
2023/05/30 02:18:12;;;;;;;4.82;3.60;;;;;;;;;;4959619;28;20085;-63
2023/05/30 02:20:38;;;;;;;8.38;4.03;;;;;;;;;;5026770;28;20061;-65
2023/05/30 02:23:07;;;;;;;4.13;3.40;;;;;;;;;;5041414;28;20582;-68
2023/05/30 02:25:32;;;;;;;6.65;3.20;;;;;;;;;;5040625;28;20020;-66
2023/05/30 02:27:58;;;;;;;6.60;4.07;;;;;;;;;;5038603;28;20045;-65
2023/05/30 02:30:23;;;;;;;4.68;3.90;;;;;;;;;;5038966;28;20119;-67
2023/05/30 02:32:49;;;;;;;7.65;3.60;;;;;;;;;;5040439;28;20377;-67
2023/05/30 02:35:14;;;;;;;5.90;3.45;;;;;;;;;;5043579;28;20381;-66
2023/05/30 02:37:41;;;;;;;5.15;3.70;;;;;;;;;;5042950;28;20037;-66
2023/05/30 02:40:10;;;;;;;5.45;3.38;;;;;;;;;;5043434;28;20476;-67
2023/05/30 02:42:36;;;;;;;6.97;3.67;;;;;;;;;;5042251;28;20460;-67
2023/05/30 02:45:03;;;;;;;7.25;3.97;;;;;;;;;;5028857;28;20071;-67
2023/05/30 02:47:29;;;;;;;4.95;3.53;;;;;;;;;;5041315;28;20119;-67
2023/05/30 02:49:54;;;;;;;6.75;3.70;;;;;;;;;;5042852;28;20035;-67
2023/05/30 02:52:19;;;;;;;7.53;3.42;;;;;;;;;;5043075;28;20488;-67
2023/05/30 02:54:53;;;;;;;5.68;4.05;;;;;;;;;;5042779;28;20028;-67
2023/05/30 02:57:34;;;;;;;8.68;4.18;;;;;;;;;;5043535;28;20485;-67
2023/05/30 03:00:20;;;;;;;5.40;3.35;;;;;;;;;;5042266;28;20057;-66
2023/05/30 03:03:04;;;;;;;5.50;4.28;;;;;;;;;;5041824;28;20025;-67
2023/05/30 03:05:30;;;;;;;6.30;3.60;;;;;;;;;;5040111;28;20130;-68
2023/05/30 03:07:57;;;;;;;5.93;3.47;;;;;;;;;;5044203;28;20376;-68
2023/05/30 03:10:22;;;;;;;5.32;3.92;;;;;;;;;;5041199;28;20330;-68
2023/05/30 03:12:50;;;;;;;7.57;3.75;;;;;;;;;;5049355;28;20048;-69
2023/05/30 03:15:16;;;;;;;4.15;3.33;;;;;;;;;;5041988;28;20514;-68
2023/05/30 03:17:42;;;;;;;9.35;4.80;;;;;;;;;;5040623;28;20137;-67
2023/05/30 03:20:08;;;;;;;6.38;3.65;;;;;;;;;;5042856;28;20039;-68
2023/05/30 03:22:34;;;;;;;4.07;3.67;;;;;;;;;;5041391;28;20033;-68
2023/05/30 03:25:02;;;;;;;5.07;3.55;;;;;;;;;;5043322;28;20344;-67
2023/05/30 03:27:27;;;;;;;3.80;3.28;;;;;;;;;;5039388;28;20562;-69
2023/05/30 03:29:53;;;;;;;5.78;3.33;;;;;;;;;;5031701;28;20094;-60
2023/05/30 03:32:19;;;;;;;5.78;3.85;;;;;;;;;;5042604;28;20457;-69
2023/05/30 03:34:48;;;;;;;4.15;3.60;;;;;;;;;;5058226;28;20082;-68
2023/05/30 03:37:17;;;;;;;7.45;3.15;;;;;;;;;;5042863;28;20867;-69
2023/05/30 03:39:42;;;;;;;5.32;3.33;;;;;;;;;;5042676;28;20037;-69
2023/05/30 03:42:08;;;;;;;5.72;4.18;;;;;;;;;;5041689;28;20037;-69
2023/05/30 03:44:33;;;;;;;4.45;3.25;;;;;;;;;;5044243;28;20446;-67
2023/05/30 03:46:59;;;;;;;4.28;3.55;;;;;;;;;;5042961;28;20471;-68
2023/05/30 03:49:24;;;;;;;6.47;3.83;;;;;;;;;;5040276;28;20064;-69
2023/05/30 03:51:50;;;;;;;6.13;3.92;;;;;;;;;;5042242;28;20052;-68
2023/05/30 03:54:15;;;;;;;6.03;4.00;;;;;;;;;;5039546;28;20021;-67
2023/05/30 03:56:41;;;;;;;4.93;3.70;;;;;;;;;;5042203;28;20646;-69
2023/05/30 03:59:08;;;;;;;4.10;3.20;;;;;;;;;;5024666;28;20029;-69
2023/05/30 04:01:35;;;;;;;6.75;4.00;;;;;;;;;;5045236;28;20083;-68
2023/05/30 04:04:00;;;;;;;4.38;3.55;;;;;;;;;;5039294;28;20468;-68
2023/05/30 04:06:26;;;;;;;5.38;4.10;;;;;;;;;;5042394;28;20077;-68
2023/05/30 04:08:55;;;;;;;7.55;4.15;;;;;;;;;;5040951;28;20053;-67
2023/05/30 04:11:22;;;;;;;5.32;3.92;;;;;;;;;;5041685;28;20047;-71
2023/05/30 04:13:47;;;;;;;4.60;4.13;;;;;;;;;;5030997;28;20388;-67
2023/05/30 04:16:14;;;;;;;8.10;4.43;;;;;;;;;;5041620;28;20972;-69
2023/05/30 04:18:45;;;;;;;4.82;3.58;;;;;;;;;;5040655;28;20547;-69
2023/05/30 04:21:14;;;;;;;4.55;3.50;;;;;;;;;;5041774;28;20491;-69
2023/05/30 04:23:41;;;;;;;5.97;3.70;;;;;;;;;;5039139;28;20112;-67
2023/05/30 04:26:08;;;;;;;3.75;3.38;;;;;;;;;;5056125;28;20040;-67
2023/05/30 04:28:36;;;;;;;5.43;3.97;;;;;;;;;;5042288;28;20122;-70
2023/05/30 04:31:05;;;;;;;4.70;3.58;;;;;;;;;;5037781;28;20131;-66
2023/05/30 04:33:34;;;;;;;6.68;4.05;;;;;;;;;;5041065;28;20683;-71
2023/05/30 04:36:04;;;;;;;6.45;3.92;;;;;;;;;;5041321;28;20037;-69
2023/05/30 04:38:32;;;;;;;5.93;4.07;;;;;;;;;;5012443;28;20076;-68
2023/05/30 04:41:00;;;;;;;9.00;4.25;;;;;;;;;;5041153;28;20037;-67
2023/05/30 04:43:26;;;;;;;5.47;3.10;;;;;;;;;;5014495;28;20115;-69
2023/05/30 04:45:51;;;;;;;6.47;4.00;;;;;;;;;;5056713;28;20041;-67
2023/05/30 04:48:17;;;;;;;4.75;3.95;;;;;;;;;;5028933;28;20040;-67
2023/05/30 04:50:46;;;;;;;5.18;3.20;;;;;;;;;;5030036;28;20041;-68
2023/05/30 04:53:13;;;;;;;9.02;4.72;;;;;;;;;;5030011;28;20635;-64
2023/05/30 04:55:39;;;;;;;5.50;3.90;;;;;;;;;;5039230;28;20040;-64
2023/05/30 04:58:05;;;;;;;6.65;5.10;;;;;;;;;;5039087;28;20031;-64
2023/05/30 05:00:30;;;;;;;5.40;3.38;;;;;;;;;;5041049;28;20443;-65
2023/05/30 05:02:57;;;;;;;5.35;3.53;;;;;;;;;;5037684;28;20579;-64
2023/05/30 05:05:23;;;;;;;6.20;3.70;;;;;;;;;;5041434;28;20060;-65
2023/05/30 05:07:48;;;;;;;4.93;4.03;;;;;;;;;;5045687;28;20052;-66
2023/05/30 05:10:14;;;;;;;4.75;3.50;;;;;;;;;;5043481;28;20079;-63
2023/05/30 05:12:39;;;;;;;5.40;3.88;;;;;;;;;;5040250;28;20578;-63
2023/05/30 05:15:05;;;;;;;6.50;3.75;;;;;;;;;;5040941;28;20048;-64
2023/05/30 05:17:30;;;;;;;10.77;5.90;;;;;;;;;;5038957;28;20025;-63
2023/05/30 05:19:56;;;;;;;6.95;4.38;;;;;;;;;;5040838;28;20080;-66
2023/05/30 05:22:22;;;;;;;4.25;3.65;;;;;;;;;;5043025;28;20522;-65
2023/05/30 05:24:47;;;;;;;8.77;4.07;;;;;;;;;;5040460;28;20041;-64
2023/05/30 05:27:13;;;;;;;7.35;4.22;;;;;;;;;;5040534;28;20108;-63
2023/05/30 05:29:38;;;;;;;8.82;4.22;;;;;;;;;;5039138;28;20065;-63
2023/05/30 05:32:04;;;;;;;5.50;3.60;;;;;;;;;;5033842;28;20077;-62
2023/05/30 05:34:29;;;;;;;5.07;3.92;;;;;;;;;;5038236;28;20549;-67
2023/05/30 05:36:55;;;;;;;5.30;3.72;;;;;;;;;;5039079;28;20048;-66
2023/05/30 05:39:20;;;;;;;5.38;3.53;;;;;;;;;;5040574;28;20064;-67
2023/05/30 05:41:46;;;;;;;4.28;3.90;;;;;;;;;;5041019;28;20045;-67
2023/05/30 05:44:11;;;;;;;6.43;4.35;;;;;;;;;;5037653;28;20721;-68
2023/05/30 05:46:36;;;;;;;5.38;4.00;;;;;;;;;;5040793;28;20563;-68
2023/05/30 05:49:02;;;;;;;8.48;4.15;;;;;;;;;;5041530;28;20036;-68
2023/05/30 05:51:28;;;;;;;5.07;3.63;;;;;;;;;;5039107;28;20546;-67
2023/05/30 05:53:53;;;;;;;4.85;4.30;;;;;;;;;;5040896;28;20387;-67
2023/05/30 05:56:19;;;;;;;4.78;4.10;;;;;;;;;;5040216;28;20622;-67
2023/05/30 05:58:44;;;;;;;5.82;4.25;;;;;;;;;;5040832;28;20404;-67
2023/05/30 06:01:09;;;;;;;5.13;4.20;;;;;;;;;;5039523;28;20048;-68
2023/05/30 06:03:35;;;;;;;5.97;4.18;;;;;;;;;;5039445;28;20484;-67
2023/05/30 06:06:00;;;;;;;7.10;4.53;;;;;;;;;;5039280;28;20368;-66
2023/05/30 06:08:26;;;;;;;4.75;3.85;;;;;;;;;;5024897;28;20141;-67
2023/05/30 06:10:51;;;;;;;5.43;4.18;;;;;;;;;;5018610;28;20057;-66
2023/05/30 06:13:17;;;;;;;8.88;4.13;;;;;;;;;;5019969;28;20091;-65
2023/05/30 06:15:42;;;;;;;16.85;10.13;;;;;;;;;;5019632;28;20487;-65
2023/05/30 06:18:07;;;;;;;6.93;5.13;;;;;;;;;;5020009;28;20574;-66
2023/05/30 06:20:33;;;;;;;5.97;4.90;;;;;;;;;;5021295;28;20582;-66
2023/05/30 06:22:58;;;;;;;5.63;3.97;;;;;;;;;;5019941;28;20044;-66
2023/05/30 06:25:25;;;;;;;10.85;5.60;;;;;;;;;;5020920;28;20476;-65
2023/05/30 06:27:51;;;;;;;6.25;5.60;;;;;;;;;;5020658;28;20583;-65
2023/05/30 06:30:17;;;;;;;5.68;4.50;;;;;;;;;;5020741;28;20045;-65
2023/05/30 06:32:42;;;;;;;4.45;3.47;;;;;;;;;;5019599;28;20218;-66
2023/05/30 06:35:08;;;;;;;8.13;4.60;;;;;;;;;;5018904;28;20457;-66
2023/05/30 06:37:33;;;;;;;5.22;4.70;;;;;;;;;;5018828;28;20033;-66
2023/05/30 06:39:59;;;;;;;6.13;4.50;;;;;;;;;;5019828;28;20595;-65
2023/05/30 06:42:24;;;;;;;8.30;4.15;;;;;;;;;;5018615;28;20056;-65
2023/05/30 06:44:50;;;;;;;6.63;4.38;;;;;;;;;;4986208;28;20397;-66
2023/05/30 06:47:15;;;;;;;6.88;4.72;;;;;;;;;;5018166;28;20403;-66
2023/05/30 06:49:40;;;;;;;5.70;4.85;;;;;;;;;;5019897;28;20048;-68
2023/05/30 06:52:06;;;;;;;7.07;4.43;;;;;;;;;;5019795;28;20041;-65
2023/05/30 06:54:32;;;;;;;13.38;4.18;;;;;;;;;;4992926;28;20056;-66
2023/05/30 06:57:07;;;;;;;5.40;4.68;;;;;;;;;;5018707;28;20127;-66
2023/05/30 06:59:33;;;;;;;8.52;4.47;;;;;;;;;;5019186;28;20047;-66
2023/05/30 07:01:59;;;;;;;5.28;4.55;;;;;;;;;;5018359;28;20045;-66
2023/05/30 07:04:24;;;;;;;5.40;3.95;;;;;;;;;;5019934;28;20450;-66
2023/05/30 07:06:50;;;;;;;5.03;3.60;;;;;;;;;;5017897;28;20408;-65
2023/05/30 07:09:16;;;;;;;5.75;4.45;;;;;;;;;;5019109;28;20508;-66
2023/05/30 07:11:41;;;;;;;5.85;4.38;;;;;;;;;;5018492;28;20038;-66
2023/05/30 07:14:06;;;;;;;4.45;4.05;;;;;;;;;;5019148;28;20055;-66
2023/05/30 07:16:32;;;;;;;8.35;4.40;;;;;;;;;;5016693;28;20061;-66
2023/05/30 07:18:57;;;;;;;4.68;4.22;;;;;;;;;;5017086;28;20041;-65
2023/05/30 07:21:23;;;;;;;5.88;4.43;;;;;;;;;;5021641;28;20116;-65
2023/05/30 07:23:49;;;;;;;9.52;4.68;;;;;;;;;;5022768;28;20033;-64
2023/05/30 07:26:15;;;;;;;5.10;4.20;;;;;;;;;;5020781;28;20499;-65
2023/05/30 07:28:40;;;;;;;9.32;4.35;;;;;;;;;;5021144;28;20564;-65
2023/05/30 07:31:05;;;;;;;9.77;4.35;;;;;;;;;;5003243;28;20101;-65
2023/05/30 07:33:31;;;;;;;10.95;4.70;;;;;;;;;;5022527;28;20524;-65
2023/05/30 07:35:56;;;;;;;5.38;4.88;;;;;;;;;;5022739;28;20092;-65
2023/05/30 07:38:22;;;;;;;4.50;4.10;;;;;;;;;;5018445;28;20076;-65
2023/05/30 07:40:48;;;;;;;5.80;4.25;;;;;;;;;;5022853;28;20486;-65
2023/05/30 07:43:13;;;;;;;5.97;4.07;;;;;;;;;;5020654;28;20205;-66
2023/05/30 07:45:39;;;;;;;5.30;4.20;;;;;;;;;;5023066;28;20146;-70
2023/05/30 07:48:05;;;;;;;6.57;4.32;;;;;;;;;;5020581;28;20061;-72
2023/05/30 07:50:30;;;;;;;4.75;4.00;;;;;;;;;;5004087;28;20191;-63
2023/05/30 07:52:56;;;;;;;7.97;4.43;;;;;;;;;;4994129;28;20140;-66
2023/05/30 07:55:22;;;;;;;6.60;4.40;;;;;;;;;;5023037;28;20822;-68
2023/05/30 07:57:47;;;;;;;4.65;3.70;;;;;;;;;;5022771;28;20040;-67
2023/05/30 08:00:13;;;;;;;7.70;3.90;;;;;;;;;;5023294;28;20143;-67
2023/05/30 08:02:38;;;;;;;8.95;4.50;;;;;;;;;;5022384;28;20446;-67
2023/05/30 08:05:04;;;;;;;4.90;4.25;;;;;;;;;;5023114;28;20200;-67
2023/05/30 08:07:32;;;;;;;6.65;4.20;;;;;;;;;;5021387;28;20053;-68
2023/05/30 08:09:58;;;;;;;4.68;3.80;;;;;;;;;;5022284;28;20461;-67
2023/05/30 08:12:28;;;;;;;5.78;4.05;;;;;;;;;;5021011;28;20048;-67
2023/05/30 08:14:55;;;;;;;4.40;3.65;;;;;;;;;;5021994;28;20060;-68
2023/05/30 08:17:23;;;;;;;6.10;4.35;;;;;;;;;;5021944;28;20055;-67
2023/05/30 08:19:50;;;;;;;3.97;3.50;;;;;;;;;;5022170;28;20076;-67
2023/05/30 08:22:15;;;;;;;4.95;4.00;;;;;;;;;;5021099;28;20038;-68
2023/05/30 08:24:41;;;;;;;5.28;4.78;;;;;;;;;;5021734;28;20534;-66
2023/05/30 08:27:10;;;;;;;5.90;4.35;;;;;;;;;;5020582;28;20906;-65
2023/05/30 08:29:36;;;;;;;7.00;3.58;;;;;;;;;;5021182;28;20052;-65
2023/05/30 08:32:02;;;;;;;7.30;4.43;;;;;;;;;;5020605;28;20087;-66
2023/05/30 08:34:27;;;;;;;8.07;3.67;;;;;;;;;;5020237;28;20045;-66
2023/05/30 08:36:53;;;;;;;6.80;4.75;;;;;;;;;;5003923;28;20604;-65
2023/05/30 08:39:19;;;;;;;5.22;4.55;;;;;;;;;;5004407;28;20032;-66
2023/05/30 08:41:45;;;;;;;8.30;4.35;;;;;;;;;;5020550;28;20122;-66
2023/05/30 08:44:10;;;;;;;6.78;4.13;;;;;;;;;;5019640;28;20033;-65
2023/05/30 08:46:38;;;;;;;5.88;4.50;;;;;;;;;;5007763;28;20048;-66
2023/05/30 08:49:04;;;;;;;6.85;5.13;;;;;;;;;;5020973;28;20056;-66
2023/05/30 08:51:30;;;;;;;5.13;4.63;;;;;;;;;;5019913;28;20041;-65
2023/05/30 08:54:00;;;;;;;6.63;4.40;;;;;;;;;;5019116;28;20449;-66
2023/05/30 08:56:29;;;;;;;6.78;4.75;;;;;;;;;;5018571;28;20029;-66
2023/05/30 08:58:56;;;;;;;7.10;4.03;;;;;;;;;;5021121;28;20057;-66
2023/05/30 09:01:22;;;;;;;7.75;4.43;;;;;;;;;;5019513;28;20575;-67
2023/05/30 09:03:48;;;;;;;5.18;4.18;;;;;;;;;;5018088;28;20040;-63
2023/05/30 09:06:13;;;;;;;6.45;4.18;;;;;;;;;;5019928;28;20037;-60
2023/05/30 09:08:41;;;;;;;4.20;3.60;;;;;;;;;;5020052;28;20057;-60
2023/05/30 09:11:06;;;;;;;4.93;4.25;;;;;;;;;;5020664;28;20033;-61
2023/05/30 09:13:33;;;;;;;7.05;4.78;;;;;;;;;;5019428;28;20118;-60
2023/05/30 09:15:59;;;;;;;7.18;4.20;;;;;;;;;;5019533;28;20044;-60
2023/05/30 09:18:24;;;;;;;5.03;3.78;;;;;;;;;;5019861;28;20037;-61
2023/05/30 09:20:50;;;;;;;6.13;4.20;;;;;;;;;;5021987;28;20049;-60
2023/05/30 09:23:16;;;;;;;5.00;4.50;;;;;;;;;;5017285;28;20073;-61
2023/05/30 09:25:46;;;;;;;7.65;4.68;;;;;;;;;;5002762;28;20133;-61
2023/05/30 09:28:12;;;;;;;10.82;4.95;;;;;;;;;;5019900;28;20296;-60
2023/05/30 09:30:56;;;;;;;10.55;5.82;;;;;;;;;;5018669;28;20124;-61
2023/05/30 09:33:22;;;;;;;9.88;4.93;;;;;;;;;;5016964;28;20730;-60
2023/05/30 09:35:53;;;;;;;8.93;5.05;;;;;;;;;;5020508;28;20662;-61
2023/05/30 09:38:22;;;;;;;5.22;4.72;;;;;;;;;;5019680;28;20209;-61
2023/05/30 09:41:01;;;;;;;6.55;4.55;;;;;;;;;;5018894;28;20075;-61
2023/05/30 09:43:34;;;;;;;5.65;4.65;;;;;;;;;;5018836;28;20039;-61
2023/05/30 09:46:06;;;;;;;7.63;4.72;;;;;;;;;;5019258;28;20556;-62
2023/05/30 09:48:32;;;;;;;8.05;4.05;;;;;;;;;;5018711;28;20920;-62
2023/05/30 09:51:01;;;;;;;4.50;4.10;;;;;;;;;;5018992;28;20310;-61
2023/05/30 09:53:27;;;;;;;6.85;4.30;;;;;;;;;;5018198;28;20568;-61
2023/05/30 09:55:52;;;;;;;4.40;3.83;;;;;;;;;;5008324;28;20064;-61
2023/05/30 09:58:18;;;;;;;8.43;4.45;;;;;;;;;;5019195;28;20534;-61
2023/05/30 10:00:54;;;;;;;7.03;4.05;;;;;;;;;;5019935;28;20075;-61
2023/05/30 10:03:20;;;;;;;5.22;3.67;;;;;;;;;;5018701;28;20041;-63
2023/05/30 10:05:46;;;;;;;7.75;4.47;;;;;;;;;;5019927;28;20116;-63
2023/05/30 10:08:11;;;;;;;7.10;4.20;;;;;;;;;;5021639;28;20057;-63
2023/05/30 10:10:40;;;;;;;9.40;4.50;;;;;;;;;;5038741;28;20063;-63
2023/05/30 10:13:06;;;;;;;7.90;3.70;;;;;;;;;;5038980;28;20131;-63
2023/05/30 10:15:31;;;;;;;11.60;4.35;;;;;;;;;;5038652;28;20094;-63
2023/05/30 10:17:59;;;;;;;9.80;4.97;;;;;;;;;;5039458;28;20337;-63
2023/05/30 10:20:26;;;;;;;7.75;4.57;;;;;;;;;;5028793;28;20044;-64
2023/05/30 10:22:52;;;;;;;4.50;3.78;;;;;;;;;;5040533;28;20258;-63
2023/05/30 10:25:18;;;;;;;5.82;4.75;;;;;;;;;;5039617;28;20040;-63
2023/05/30 10:27:53;;;;;;;5.32;4.57;;;;;;;;;;5039488;28;20277;-64
2023/05/30 10:30:29;;;;;;;9.68;4.95;;;;;;;;;;5039792;28;20037;-63
2023/05/30 10:33:04;;;;;;;13.25;9.57;;;;;;;;;;5037481;28;20033;-63
2023/05/30 10:35:30;;;;;;;9.00;4.55;;;;;;;;;;5040584;28;20132;-63
2023/05/30 10:37:57;;;;;;;9.60;4.63;;;;;;;;;;5039064;28;20037;-65
2023/05/30 10:40:30;;;;;;;6.75;5.22;;;;;;;;;;5039327;28;20550;-63
2023/05/30 10:43:06;;;;;;;7.55;4.70;;;;;;;;;;5040448;28;20138;-62
2023/05/30 10:45:50;;;;;;;6.65;4.68;;;;;;;;;;5038923;28;20041;-63
2023/05/30 10:48:25;;;;;;;6.63;4.68;;;;;;;;;;5036426;28;20364;-64
2023/05/30 10:50:53;;;;;;;7.43;4.72;;;;;;;;;;5038089;28;20036;-62
2023/05/30 10:53:19;;;;;;;6.70;5.03;;;;;;;;;;5039917;28;20128;-62
2023/05/30 10:55:46;;;;;;;4.50;4.15;;;;;;;;;;5039287;28;20124;-61
2023/05/30 10:58:30;;;;;;;5.25;4.78;;;;;;;;;;5040197;28;20040;-61
2023/05/30 11:01:16;;;;;;;5.65;4.38;;;;;;;;;;5044267;28;20029;-62
2023/05/30 11:03:44;;;;;;;5.25;4.70;;;;;;;;;;5042832;28;20041;-63
2023/05/30 11:06:10;;;;;;;6.45;4.70;;;;;;;;;;5042559;28;20116;-62
2023/05/30 11:08:38;;;;;;;6.78;4.45;;;;;;;;;;5041438;28;20063;-62
2023/05/30 11:11:14;;;;;;;6.95;4.20;;;;;;;;;;5041084;28;20147;-63
2023/05/30 11:13:43;;;;;;;5.75;4.80;;;;;;;;;;5043392;28;20423;-63
2023/05/30 11:16:22;;;;;;;5.78;4.82;;;;;;;;;;5042003;28;20029;-62
2023/05/30 11:18:50;;;;;;;9.63;4.95;;;;;;;;;;5041716;28;20043;-62
2023/05/30 11:21:36;;;;;;;7.32;5.38;;;;;;;;;;5039835;28;20077;-62
2023/05/30 11:24:03;;;;;;;6.85;4.82;;;;;;;;;;5042802;28;20124;-62
2023/05/30 11:26:48;;;;;;;6.00;5.22;;;;;;;;;;5042396;28;20049;-61
2023/05/30 11:29:29;;;;;;;12.20;4.85;;;;;;;;;;5041619;28;20452;-61
2023/05/30 11:31:55;;;;;;;6.72;4.75;;;;;;;;;;5042942;28;20388;-62
2023/05/30 11:34:21;;;;;;;6.07;4.32;;;;;;;;;;5041747;28;20159;-61
2023/05/30 11:36:47;;;;;;;6.03;5.15;;;;;;;;;;5042610;28;20545;-62
2023/05/30 11:39:13;;;;;;;7.57;5.00;;;;;;;;;;5041075;28;20128;-62
2023/05/30 11:41:38;;;;;;;8.65;4.57;;;;;;;;;;5041414;28;20040;-62
2023/05/30 11:44:04;;;;;;;7.07;4.25;;;;;;;;;;5040211;28;20384;-62
2023/05/30 11:46:29;;;;;;;5.97;4.00;;;;;;;;;;5042211;28;20056;-62
2023/05/30 11:48:56;;;;;;;7.53;4.28;;;;;;;;;;5041888;28;20145;-62
2023/05/30 11:51:21;;;;;;;6.68;4.90;;;;;;;;;;5040628;28;20160;-62
2023/05/30 11:53:46;;;;;;;7.90;4.57;;;;;;;;;;5042056;28;20501;-62
2023/05/30 11:56:12;;;;;;;7.30;4.43;;;;;;;;;;5041546;28;20126;-62
2023/05/30 11:58:38;;;;;;;4.45;3.78;;;;;;;;;;5042482;28;20701;-61
2023/05/30 12:01:04;;;;;;;6.28;4.78;;;;;;;;;;5040600;28;20082;-63
2023/05/30 12:03:31;;;;;;;9.18;4.30;;;;;;;;;;5040002;28;20098;-63
2023/05/30 12:05:57;;;;;;;8.68;4.40;;;;;;;;;;5040436;28;20037;-65
2023/05/30 12:08:24;;;;;;;7.20;4.57;;;;;;;;;;5039242;28;20582;-64
2023/05/30 12:10:50;;;;;;;6.95;4.38;;;;;;;;;;5039129;28;20158;-63
2023/05/30 12:13:17;;;;;;;5.05;4.55;;;;;;;;;;5041554;28;20075;-62
2023/05/30 12:15:42;;;;;;;5.70;4.18;;;;;;;;;;5040934;28;20037;-63
2023/05/30 12:18:09;;;;;;;7.63;4.90;;;;;;;;;;5041305;28;20133;-63
2023/05/30 12:20:44;;;;;;;8.70;5.03;;;;;;;;;;5039075;28;20508;-64
2023/05/30 12:23:10;;;;;;;7.32;4.15;;;;;;;;;;5042051;28;20060;-65
2023/05/30 12:25:35;;;;;;;6.50;4.75;;;;;;;;;;5042036;28;20032;-64
2023/05/30 12:28:01;;;;;;;5.18;4.05;;;;;;;;;;5042529;28;20164;-63
2023/05/30 12:30:30;;;;;;;5.03;4.53;;;;;;;;;;5040661;28;20387;-63
2023/05/30 12:32:56;;;;;;;6.70;4.82;;;;;;;;;;5041936;28;20128;-64
2023/05/30 12:35:25;;;;;;;4.70;4.30;;;;;;;;;;5041874;28;20056;-63
2023/05/30 12:37:55;;;;;;;4.38;3.97;;;;;;;;;;5041998;28;20028;-63
2023/05/30 12:40:24;;;;;;;7.20;4.63;;;;;;;;;;5040835;28;20029;-63
2023/05/30 12:42:54;;;;;;;7.32;4.70;;;;;;;;;;5041582;28;20029;-63
2023/05/30 12:45:20;;;;;;;10.10;5.15;;;;;;;;;;5041221;28;20075;-63
2023/05/30 12:47:45;;;;;;;6.43;4.68;;;;;;;;;;5040686;28;20127;-62
2023/05/30 12:50:11;;;;;;;5.68;4.35;;;;;;;;;;5041495;28;20071;-61
2023/05/30 12:52:36;;;;;;;8.43;5.60;;;;;;;;;;5039488;28;20487;-60
2023/05/30 12:55:02;;;;;;;8.48;4.50;;;;;;;;;;5039992;28;20590;-62
2023/05/30 12:57:28;;;;;;;8.18;5.10;;;;;;;;;;5039789;28;20156;-57
2023/05/30 12:59:55;;;;;;;6.45;5.85;;;;;;;;;;5041112;28;20837;-62
2023/05/30 13:02:24;;;;;;;5.53;5.03;;;;;;;;;;5040875;28;20037;-63
2023/05/30 13:04:50;;;;;;;6.57;5.05;;;;;;;;;;5041579;28;20035;-64
2023/05/30 13:07:16;;;;;;;7.30;5.45;;;;;;;;;;5036897;28;20053;-63
2023/05/30 13:09:41;;;;;;;5.35;4.63;;;;;;;;;;5022236;28;20048;-63
2023/05/30 13:12:10;;;;;;;5.85;5.45;;;;;;;;;;5002474;28;20042;-63
2023/05/30 13:14:36;;;;;;;6.00;5.05;;;;;;;;;;5020074;28;20033;-63
2023/05/30 13:17:03;;;;;;;6.25;5.30;;;;;;;;;;5020802;28;20726;-63
2023/05/30 13:19:29;;;;;;;5.97;4.45;;;;;;;;;;5019735;28;20098;-63
2023/05/30 13:21:54;;;;;;;5.07;4.60;;;;;;;;;;5021522;28;20716;-62
2023/05/30 13:24:20;;;;;;;5.15;4.65;;;;;;;;;;5020969;28;20064;-61
2023/05/30 13:26:46;;;;;;;7.32;5.13;;;;;;;;;;5021277;28;20037;-61
2023/05/30 13:29:11;;;;;;;5.13;4.70;;;;;;;;;;5020357;28;20131;-61
2023/05/30 13:31:36;;;;;;;5.65;4.18;;;;;;;;;;5019160;28;20096;-61
2023/05/30 13:34:02;;;;;;;5.55;4.55;;;;;;;;;;5020702;28;20565;-61
2023/05/30 13:36:28;;;;;;;6.15;5.10;;;;;;;;;;5019902;28;20037;-62
2023/05/30 13:38:53;;;;;;;5.15;4.65;;;;;;;;;;5021061;28;20037;-60
2023/05/30 13:41:22;;;;;;;5.80;5.28;;;;;;;;;;5019970;28;20041;-63
2023/05/30 13:43:48;;;;;;;8.02;4.57;;;;;;;;;;5019449;28;20111;-63
2023/05/30 13:46:13;;;;;;;6.35;5.38;;;;;;;;;;5019545;28;20029;-63
2023/05/30 13:48:39;;;;;;;5.53;4.35;;;;;;;;;;5020438;28;20500;-62
2023/05/30 13:51:05;;;;;;;4.88;4.07;;;;;;;;;;5018863;28;20463;-63
2023/05/30 13:53:30;;;;;;;6.78;4.45;;;;;;;;;;5021253;28;20138;-63
2023/05/30 13:55:56;;;;;;;8.10;4.85;;;;;;;;;;5020071;28;20065;-63
2023/05/30 13:58:22;;;;;;;7.75;5.07;;;;;;;;;;5021379;28;20570;-65
2023/05/30 14:00:47;;;;;;;10.02;4.50;;;;;;;;;;5019348;28;20457;-64
2023/05/30 14:03:13;;;;;;;5.30;4.85;;;;;;;;;;5019063;28;20090;-64
2023/05/30 14:05:39;;;;;;;7.65;5.88;;;;;;;;;;5011810;28;20052;-63
2023/05/30 14:08:04;;;;;;;6.25;4.82;;;;;;;;;;5011348;28;20056;-64
2023/05/30 14:10:30;;;;;;;5.75;4.68;;;;;;;;;;5019490;28;20041;-64
2023/05/30 14:12:56;;;;;;;5.38;4.85;;;;;;;;;;5017714;28;20084;-62
2023/05/30 14:15:22;;;;;;;5.82;4.80;;;;;;;;;;5018446;28;20063;-60
2023/05/30 14:17:47;;;;;;;5.07;4.50;;;;;;;;;;5019419;28;20029;-61
2023/05/30 14:20:13;;;;;;;4.75;4.30;;;;;;;;;;5018936;28;20467;-61
2023/05/30 14:22:39;;;;;;;5.07;4.43;;;;;;;;;;5018699;28;20021;-62
2023/05/30 14:25:05;;;;;;;5.82;4.97;;;;;;;;;;4977982;28;20239;-63
2023/05/30 14:27:32;;;;;;;6.43;5.18;;;;;;;;;;5018828;28;20036;-62
2023/05/30 14:29:57;;;;;;;9.60;5.22;;;;;;;;;;5022776;28;20146;-62
2023/05/30 14:32:23;;;;;;;6.07;5.47;;;;;;;;;;5022569;28;20172;-63
2023/05/30 14:34:48;;;;;;;6.70;4.97;;;;;;;;;;5025280;28;20250;-63
2023/05/30 14:37:14;;;;;;;7.43;5.35;;;;;;;;;;5006767;28;20033;-64
2023/05/30 14:39:40;;;;;;;3.95;3.65;;;;;;;;;;5024629;28;20064;-63
2023/05/30 14:42:06;;;;;;;7.13;4.57;;;;;;;;;;5022818;28;20041;-63